Washington — KLBO — position and weather

sailwx.info

Track history (hours):
 
Tides and Currents Weather Stations Pressure Air Temp Water Temp Dewpoint Dewpoint Depression Visibility Wind Speed Wind Dir Waves Ship Positions

Washington

Owner: Crowley Petroleum Services, Jacksonville, FL. More information available from US FCC via Universal Licensing System and Coast Guard Vessel Documentation Center.

Last reported at 2018-May-24 04:24 UTC. Time now 2018-May-24 07:59 UTC.
Position N 37°56' W 122°25'.

Length 251 m; draft 10.2 m.

Type: Ship. MMSI: 368127000.

Date/timePositionNaut miles runAvg speedWind from/ knotsBaromVisibWave heightAir tempDewpointWater temp
2018-May-24 04:24N 37°56' W 122°25'0 0.0
2018-May-24 04:00N 37°56' W 122°25'0 0.1
2018-May-24 03:30N 37°56' W 122°25'1 2.8
2018-May-24 03:00N 37°54' W 122°25'3 7.0
2018-May-24 02:30N 37°51' W 122°24'3 6.8
2018-May-24 02:00N 37°48' W 122°22'2 4.6
2018-May-24 01:28N 37°45' W 122°21'0 0.2
2018-May-24 01:00N 37°45' W 122°21'0 0.0
2018-May-24 00:30N 37°45' W 122°21'0 0.0
2018-May-24 00:00N 37°45' W 122°21'0 0.0
2018-May-23 23:30N 37°45' W 122°21'0 0.0
2018-May-23 23:00N 37°45' W 122°21'0 0.2
2018-May-23 22:30N 37°45' W 122°21'0 0.5
2018-May-23 22:00N 37°46' W 122°21'0 0.1
2018-May-23 21:30N 37°46' W 122°21'0 0.0
2018-May-23 20:58N 37°46' W 122°21'0 0.1
2018-May-23 20:28N 37°46' W 122°21'0 0.0
2018-May-23 19:58N 37°46' W 122°21'0 0.0
2018-May-23 19:28N 37°46' W 122°21'0 0.0
2018-May-23 18:58N 37°46' W 122°21'0 0.0
2018-May-23 18:28N 37°46' W 122°21'0 0.0
2018-May-23 17:58N 37°46' W 122°21'0 0.2
2018-May-23 17:28N 37°46' W 122°21'0 0.0
2018-May-23 17:00N 37°46' W 122°21'0 0.0
2018-May-23 16:30N 37°46' W 122°21'0 0.2
2018-May-23 16:00N 37°46' W 122°21'0 0.4
2018-May-23 15:30N 37°45' W 122°21'0 0.1
2018-May-23 15:00N 37°45' W 122°21'0 0.1
2018-May-23 14:30N 37°45' W 122°21'0 0.0
2018-May-23 13:59N 37°45' W 122°21'0 0.0
2018-May-23 13:30N 37°45' W 122°21'0 0.0
2018-May-23 13:00N 37°45' W 122°21'0 0.0
2018-May-23 12:30N 37°45' W 122°21'0 0.0
2018-May-23 12:00N 37°45' W 122°21'0 0.1
2018-May-23 11:31N 37°45' W 122°21'1 2.3
2018-May-23 11:00N 37°46' W 122°22'4 8.4
2018-May-23 10:30N 37°49' W 122°26'5 9.9
2018-May-23 10:00N 37°47' W 122°32'510.7
2018-May-23 09:30N 37°46' W 122°39'5 9.8
2018-May-23 09:00N 37°43' W 122°44'5 9.9
2018-May-23 08:30N 37°40' W 122°48'510.0
2018-May-23 08:00N 37°37' W 122°54'510.1
2018-May-23 07:30N 37°34' W 122°59'5 9.2
2018-May-23 07:00N 37°31' W 123°03'712.4
2018-May-23 06:28N 37°24' W 123°05'1713.8
2018-May-23 05:13N 37°07' W 123°09'913.2
2018-May-23 04:30N 36°58' W 123°11'613.1
2018-May-23 04:01N 36°52' W 123°13'1213.2
2018-May-23 03:06N 36°40' W 123°12'113.4
2018-May-23 03:01N 36°39' W 123°12'3713.0
2018-May-23 00:08N 36°01' W 123°10'15011.9
2018-May-22 11:34N 33°57' W 121°28'112.2
2018-May-22 11:28N 33°56' W 121°27'1012.0
2018-May-22 10:36N 33°48' W 121°18'112.0
2018-May-22 10:30N 33°47' W 121°17'611.9
2018-May-22 10:00N 33°43' W 121°13'510.9
2018-May-22 09:30N 33°41' W 121°06'611.9
2018-May-22 09:01N 33°41' W 120°59'611.9
2018-May-22 08:30N 33°41' W 120°52'611.9
2018-May-22 08:01N 33°41' W 120°45'611.8
2018-May-22 07:29N 33°41' W 120°38'612.2
2018-May-22 06:58N 33°41' W 120°30'612.1
2018-May-22 06:30N 33°41' W 120°23'612.1
2018-May-22 05:59N 33°41' W 120°16'612.2
2018-May-22 05:30N 33°42' W 120°09'612.3
2018-May-22 05:00N 33°42' W 120°01'612.1
2018-May-22 04:30N 33°43' W 119°54'612.6
2018-May-22 04:00N 33°44' W 119°47'612.6
2018-May-22 03:30N 33°43' W 119°39'712.4
2018-May-22 02:58N 33°41' W 119°31'612.7
2018-May-22 02:30N 33°41' W 119°24'713.3
2018-May-22 02:00N 33°41' W 119°16'612.3
2018-May-22 01:30N 33°41' W 119°09'611.3
2018-May-22 01:00N 33°41' W 119°02'611.5
2018-May-22 00:30N 33°40' W 118°55'611.4
2018-May-22 00:00N 33°40' W 118°48'611.4
2018-May-21 23:30N 33°40' W 118°41'1311.0
2018-May-21 22:21N 33°39' W 118°26'411.6
2018-May-21 22:00N 33°38' W 118°21'611.4
2018-May-21 21:30N 33°37' W 118°15'5 9.3
2018-May-21 21:00N 33°41' W 118°12'3 5.5
2018-May-21 20:30N 33°44' W 118°12'1 2.6
2018-May-21 20:00N 33°45' W 118°13'0 0.2
2018-May-21 19:29N 33°45' W 118°13'0 0.0
2018-May-21 18:59N 33°45' W 118°13'0 0.0
2018-May-21 18:29N 33°45' W 118°13'0 0.0
2018-May-21 18:00N 33°45' W 118°13'0 0.0
2018-May-21 17:27N 33°45' W 118°13'0 0.0
2018-May-21 17:00N 33°45' W 118°13'0 0.0
2018-May-21 16:30N 33°45' W 118°13'0 0.0
2018-May-21 16:00N 33°45' W 118°13'0 0.0
2018-May-21 15:30N 33°45' W 118°13'0 0.0
2018-May-21 15:00N 33°45' W 118°13'0 0.0
2018-May-21 14:30N 33°45' W 118°13'0 0.0
2018-May-21 14:00N 33°45' W 118°13'0 0.0
2018-May-21 13:30N 33°45' W 118°13'0 0.0
2018-May-21 13:00N 33°45' W 118°13'0 0.0
2018-May-21 12:30N 33°45' W 118°13'0 0.0
2018-May-21 12:00N 33°45' W 118°13'0 0.0
2018-May-21 11:30N 33°45' W 118°13'0 0.0
2018-May-21 10:59N 33°45' W 118°13'0 0.0
2018-May-21 10:30N 33°45' W 118°13'0 0.0
2018-May-21 10:00N 33°45' W 118°13'0 0.0
2018-May-21 09:30N 33°45' W 118°13'0 0.0
2018-May-21 09:00N 33°45' W 118°13'0 0.0
2018-May-21 08:29N 33°45' W 118°13'0 0.0
2018-May-21 08:00N 33°45' W 118°13'0 0.0
2018-May-21 07:30N 33°45' W 118°13'0 0.0
2018-May-21 07:00N 33°45' W 118°13'0 0.0
2018-May-21 06:30N 33°45' W 118°13'0 0.0
2018-May-21 06:00N 33°45' W 118°13'0 0.0
2018-May-21 05:29N 33°45' W 118°13'0 0.0
2018-May-21 05:00N 33°45' W 118°13'0 0.0
2018-May-21 04:30N 33°45' W 118°13'0 0.0
2018-May-21 04:00N 33°45' W 118°13'0 0.0
2018-May-21 03:30N 33°45' W 118°13'0 0.0
2018-May-21 03:00N 33°45' W 118°13'0 0.0
2018-May-21 02:30N 33°45' W 118°13'1 2.9
2018-May-21 02:00N 33°44' W 118°12'0 0.6
2018-May-21 01:28N 33°44' W 118°12'0 0.1
2018-May-21 00:58N 33°44' W 118°12'0 0.1
2018-May-21 00:28N 33°44' W 118°12'0 0.1
2018-May-20 23:58N 33°44' W 118°12'0 0.1
2018-May-20 23:28N 33°44' W 118°12'0 0.0
2018-May-20 22:58N 33°44' W 118°12'0 0.0
2018-May-20 22:28N 33°44' W 118°12'0 0.0
2018-May-20 21:58N 33°44' W 118°12'0 0.1
2018-May-20 21:28N 33°44' W 118°12'0 0.0
2018-May-20 20:58N 33°44' W 118°12'0 0.1
2018-May-20 20:25N 33°44' W 118°12'0 0.0
2018-May-20 19:58N 33°44' W 118°12'0 0.0
2018-May-20 19:28N 33°44' W 118°12'0 0.0
2018-May-20 19:00N 33°44' W 118°12'0 0.0
2018-May-20 18:30N 33°44' W 118°12'0 0.1
2018-May-20 18:00N 33°44' W 118°12'0 0.0
2018-May-20 17:30N 33°44' W 118°12'0 0.0
2018-May-20 17:00N 33°44' W 118°12'0 0.0
2018-May-20 16:30N 33°44' W 118°12'0 0.0
2018-May-20 16:00N 33°44' W 118°12'0 0.0
2018-May-20 15:30N 33°44' W 118°12'0 0.0
2018-May-20 15:00N 33°44' W 118°12'0 0.0
2018-May-20 14:29N 33°44' W 118°12'0 0.0
2018-May-20 13:59N 33°44' W 118°12'0 0.0
2018-May-20 13:29N 33°44' W 118°12'0 0.0
2018-May-20 12:59N 33°44' W 118°12'0 0.0
2018-May-20 12:29N 33°44' W 118°12'0 0.0
2018-May-20 11:59N 33°44' W 118°12'0 0.0
2018-May-20 11:29N 33°44' W 118°12'0 0.0
2018-May-20 10:59N 33°44' W 118°12'0 0.0
2018-May-20 10:29N 33°44' W 118°12'0 0.0
2018-May-20 09:59N 33°44' W 118°12'0 0.0
2018-May-20 09:30N 33°44' W 118°12'0 0.0
2018-May-20 09:00N 33°44' W 118°12'0 0.0
2018-May-20 08:30N 33°44' W 118°12'0 0.0
2018-May-20 08:00N 33°44' W 118°12'0 0.0
2018-May-20 07:30N 33°44' W 118°12'0 0.0
2018-May-20 07:00N 33°44' W 118°12'0 0.0
2018-May-20 06:30N 33°44' W 118°12'0 0.0
2018-May-20 06:00N 33°44' W 118°12'0 0.0
2018-May-20 05:30N 33°44' W 118°12'0 0.0
2018-May-20 05:00N 33°44' W 118°12'0 0.0
2018-May-20 04:27N 33°44' W 118°12'0 0.0
2018-May-20 04:00N 33°44' W 118°12'0 0.0
2018-May-20 03:30N 33°44' W 118°12'0 0.0
2018-May-20 03:00N 33°44' W 118°12'0 0.0
2018-May-20 02:30N 33°44' W 118°12'0 0.0
2018-May-20 02:00N 33°44' W 118°12'0 0.0
2018-May-20 01:30N 33°44' W 118°12'0 0.0
2018-May-20 01:00N 33°44' W 118°12'0 0.0
2018-May-20 00:30N 33°44' W 118°12'0 0.1
2018-May-20 00:00N 33°44' W 118°12'0 0.1
2018-May-19 23:30N 33°44' W 118°12'0 0.1
2018-May-19 23:00N 33°44' W 118°12'0 0.1
2018-May-19 22:30N 33°44' W 118°12'0 0.1
2018-May-19 22:00N 33°44' W 118°12'0 0.1
2018-May-19 21:30N 33°44' W 118°12'0 0.0
2018-May-19 21:00N 33°44' W 118°12'0 0.1
2018-May-19 20:30N 33°44' W 118°12'0 0.1
2018-May-19 20:00N 33°44' W 118°12'0 0.1
2018-May-19 19:30N 33°44' W 118°12'0 0.0
2018-May-19 18:57N 33°44' W 118°12'0 0.0
2018-May-19 18:30N 33°44' W 118°12'0 0.0
2018-May-19 18:00N 33°44' W 118°12'0 0.1
2018-May-19 17:30N 33°44' W 118°12'0 0.0
2018-May-19 17:00N 33°44' W 118°12'0 0.1
2018-May-19 16:30N 33°44' W 118°12'0 0.1
2018-May-19 15:57N 33°44' W 118°12'0 0.1
2018-May-19 15:29N 33°44' W 118°12'0 0.0
2018-May-19 14:59N 33°44' W 118°12'0 0.1
2018-May-19 14:29N 33°44' W 118°12'0 0.0
2018-May-19 13:59N 33°44' W 118°12'0 0.0
2018-May-19 13:29N 33°44' W 118°12'0 0.0
2018-May-19 12:59N 33°44' W 118°12'0 0.0
2018-May-19 12:29N 33°44' W 118°12'0 0.0
2018-May-19 11:59N 33°44' W 118°12'0 0.1
2018-May-19 11:28N 33°44' W 118°12'0 0.1
2018-May-19 10:58N 33°44' W 118°12'0 0.0
2018-May-19 10:22N 33°44' W 118°12'0 0.0
2018-May-19 09:58N 33°44' W 118°12'0 0.0
2018-May-19 09:28N 33°44' W 118°12'0 0.0
2018-May-19 08:58N 33°44' W 118°12'0 0.0
2018-May-19 08:28N 33°44' W 118°12'0 0.0
2018-May-19 08:00N 33°44' W 118°12'0 0.1
2018-May-19 07:30N 33°44' W 118°12'0 0.0
2018-May-19 07:00N 33°44' W 118°12'0 0.0
2018-May-19 06:30N 33°44' W 118°12'0 0.0
2018-May-19 06:00N 33°44' W 118°12'0 0.0
2018-May-19 05:30N 33°44' W 118°12'0 0.0
2018-May-19 05:00N 33°44' W 118°12'0 0.0
2018-May-19 04:30N 33°44' W 118°12'0 0.0
2018-May-19 04:00N 33°44' W 118°12'0 0.0
2018-May-19 03:28N 33°44' W 118°12'0 0.0
2018-May-19 02:58N 33°44' W 118°12'0 0.1
2018-May-19 02:28N 33°44' W 118°12'0 0.0
2018-May-19 01:58N 33°44' W 118°12'0 0.1
2018-May-19 01:28N 33°44' W 118°12'0 0.0
2018-May-19 00:58N 33°44' W 118°12'0 0.0
2018-May-19 00:28N 33°44' W 118°12'0 0.0
2018-May-18 23:59N 33°44' W 118°12'0 0.0
2018-May-18 23:29N 33°44' W 118°12'0 0.1
2018-May-18 22:59N 33°44' W 118°12'0 0.1
2018-May-18 22:29N 33°44' W 118°12'0 0.0
2018-May-18 21:59N 33°44' W 118°12'0 0.1
2018-May-18 21:29N 33°44' W 118°12'0 0.0
2018-May-18 20:59N 33°44' W 118°12'0 0.1
2018-May-18 20:29N 33°44' W 118°12'0 0.0
2018-May-18 20:00N 33°44' W 118°12'0 0.0
2018-May-18 19:30N 33°44' W 118°12'0 0.0
2018-May-18 19:00N 33°44' W 118°12'0 0.1
2018-May-18 18:30N 33°44' W 118°12'0 0.0
2018-May-18 18:00N 33°44' W 118°12'0 0.0
2018-May-18 17:30N 33°44' W 118°12'0 0.1
2018-May-18 17:00N 33°44' W 118°12'0 0.0
2018-May-18 16:30N 33°44' W 118°12'0 0.1
2018-May-18 15:59N 33°44' W 118°12'0 0.1
2018-May-18 15:29N 33°44' W 118°12'0 0.1
2018-May-18 14:59N 33°44' W 118°12'0 0.1
2018-May-18 14:29N 33°44' W 118°12'0 0.0
2018-May-18 13:59N 33°44' W 118°12'0 0.0
2018-May-18 13:29N 33°44' W 118°12'0 0.0
2018-May-18 12:59N 33°44' W 118°12'0 0.0
2018-May-18 12:30N 33°44' W 118°12'0 0.0
2018-May-18 11:58N 33°44' W 118°12'0 0.0
2018-May-18 11:28N 33°44' W 118°12'0 0.1
2018-May-18 10:58N 33°44' W 118°12'0 0.1
2018-May-18 10:28N 33°44' W 118°12'0 0.1
2018-May-18 09:58N 33°44' W 118°12'0 0.1
2018-May-18 09:25N 33°44' W 118°12'0 0.1
2018-May-18 08:58N 33°44' W 118°12'0 0.1
2018-May-18 08:30N 33°44' W 118°12'0 0.1
2018-May-18 07:58N 33°44' W 118°12'0 0.0
2018-May-18 07:28N 33°44' W 118°12'0 0.0
2018-May-18 06:58N 33°44' W 118°12'0 0.0
2018-May-18 06:25N 33°44' W 118°12'0 0.0
2018-May-18 05:58N 33°44' W 118°12'0 0.0
2018-May-18 05:28N 33°44' W 118°12'0 0.0
2018-May-18 04:58N 33°44' W 118°12'0 0.1
2018-May-18 04:28N 33°44' W 118°12'0 0.0
2018-May-18 03:58N 33°44' W 118°12'0 0.1
2018-May-18 03:25N 33°44' W 118°12'0 0.0
2018-May-18 02:58N 33°44' W 118°12'0 0.0
2018-May-18 02:28N 33°44' W 118°12'0 0.1
2018-May-18 01:58N 33°44' W 118°12'0 0.1
2018-May-18 01:28N 33°44' W 118°12'0 0.0
2018-May-18 00:58N 33°44' W 118°12'0 0.1
2018-May-18 00:28N 33°44' W 118°12'0 0.0
2018-May-17 23:58N 33°44' W 118°12'0 0.0
2018-May-17 23:28N 33°44' W 118°12'0 0.1
2018-May-17 22:58N 33°44' W 118°12'0 0.0
2018-May-17 22:28N 33°44' W 118°12'0 0.0
2018-May-17 21:58N 33°44' W 118°12'0 0.0
2018-May-17 21:28N 33°44' W 118°12'0 0.1
2018-May-17 20:58N 33°44' W 118°12'0 0.0
2018-May-17 20:28N 33°44' W 118°12'0 0.0
2018-May-17 19:58N 33°44' W 118°12'0 0.0
2018-May-17 19:28N 33°44' W 118°12'0 0.0
2018-May-17 18:58N 33°44' W 118°12'0 0.0
2018-May-17 18:28N 33°44' W 118°12'0 0.0
2018-May-17 17:58N 33°44' W 118°12'0 0.0
2018-May-17 17:28N 33°44' W 118°12'0 0.0
2018-May-17 16:58N 33°44' W 118°12'0 0.1
2018-May-17 16:28N 33°44' W 118°12'0 0.0
2018-May-17 15:58N 33°44' W 118°12'0 0.1
2018-May-17 15:28N 33°44' W 118°12'0 0.1
2018-May-17 14:58N 33°44' W 118°12'0 0.1
2018-May-17 14:28N 33°44' W 118°12'0 0.0
2018-May-17 13:58N 33°44' W 118°12'0 0.0
2018-May-17 13:28N 33°44' W 118°12'0 0.0
2018-May-17 12:58N 33°44' W 118°12'0 0.0
2018-May-17 12:28N 33°44' W 118°12'0 0.0
2018-May-17 11:58N 33°44' W 118°12'0 0.0
2018-May-17 11:28N 33°44' W 118°12'0 0.0
2018-May-17 10:58N 33°44' W 118°12'0 0.0
2018-May-17 10:25N 33°44' W 118°12'0 0.0
2018-May-17 09:58N 33°44' W 118°12'0 0.0
2018-May-17 09:22N 33°44' W 118°12'0 0.0
2018-May-17 08:58N 33°44' W 118°12'0 0.0
2018-May-17 08:28N 33°44' W 118°12'0 0.0
2018-May-17 07:58N 33°44' W 118°12'0 0.0
2018-May-17 07:28N 33°44' W 118°12'0 0.0
2018-May-17 06:55N 33°44' W 118°12'0 0.0
2018-May-17 06:28N 33°44' W 118°12'0 0.0
2018-May-17 05:58N 33°44' W 118°12'0 0.0
2018-May-17 05:28N 33°44' W 118°12'0 0.0
2018-May-17 04:59N 33°44' W 118°12'0 0.0
2018-May-17 04:26N 33°44' W 118°12'0 0.0
2018-May-17 03:59N 33°44' W 118°12'0 0.0
2018-May-17 03:29N 33°44' W 118°12'0 0.0
2018-May-17 02:59N 33°44' W 118°12'0 0.0
2018-May-17 02:29N 33°44' W 118°12'0 0.0
2018-May-17 01:59N 33°44' W 118°12'0 0.0
2018-May-17 01:30N 33°44' W 118°12'0 0.1
2018-May-17 00:55N 33°44' W 118°12'0 0.0
2018-May-17 00:28N 33°44' W 118°12'0 0.0
2018-May-16 23:58N 33°44' W 118°12'0 0.1
2018-May-16 23:28N 33°44' W 118°12'0 0.0
2018-May-16 22:58N 33°44' W 118°12'0 0.0
2018-May-16 22:28N 33°44' W 118°12'0 0.0
2018-May-16 21:58N 33°44' W 118°12'0 0.0
2018-May-16 21:28N 33°44' W 118°12'0 0.0
2018-May-16 20:58N 33°44' W 118°12'0 0.1
2018-May-16 20:28N 33°44' W 118°12'0 0.0
2018-May-16 19:58N 33°44' W 118°12'0 0.1
2018-May-16 19:25N 33°44' W 118°12'0 0.1
2018-May-16 18:58N 33°44' W 118°12'0 0.0
2018-May-16 18:28N 33°44' W 118°12'0 0.0
2018-May-16 17:58N 33°44' W 118°12'0 0.0
2018-May-16 17:28N 33°44' W 118°12'0 0.0
2018-May-16 16:58N 33°44' W 118°12'0 0.0
2018-May-16 16:28N 33°44' W 118°12'0 0.1
2018-May-16 15:58N 33°44' W 118°12'0 0.0
2018-May-16 15:28N 33°44' W 118°12'0 0.1
2018-May-16 14:58N 33°44' W 118°12'0 0.1
2018-May-16 14:28N 33°44' W 118°12'0 0.0
2018-May-16 13:58N 33°44' W 118°12'0 0.0
2018-May-16 13:28N 33°44' W 118°12'0 0.0
2018-May-16 12:58N 33°44' W 118°12'0 0.0
2018-May-16 12:30N 33°44' W 118°12'0 0.0
2018-May-16 12:00N 33°44' W 118°12'0 0.0
2018-May-16 11:30N 33°44' W 118°12'0 0.0
2018-May-16 11:00N 33°44' W 118°12'0 0.0
2018-May-16 10:30N 33°44' W 118°12'0 0.0
2018-May-16 10:01N 33°44' W 118°12'0 0.0
2018-May-16 09:30N 33°44' W 118°12'0 0.0
2018-May-16 09:00N 33°44' W 118°12'0 0.0
2018-May-16 08:30N 33°44' W 118°12'0 0.0
2018-May-16 08:00N 33°44' W 118°12'0 0.1
2018-May-16 07:30N 33°44' W 118°12'0 0.1
2018-May-16 07:00N 33°44' W 118°12'0 0.3
2018-May-16 06:30N 33°44' W 118°12'2 4.0
2018-May-16 06:00N 33°42' W 118°11'3 6.1
2018-May-16 05:30N 33°39' W 118°11'5 8.8
2018-May-16 04:59N 33°36' W 118°15'511.4
2018-May-16 04:30N 33°36' W 118°22'611.2
2018-May-16 04:00N 33°36' W 118°28'611.4
2018-May-16 03:29N 33°36' W 118°35'510.2
2018-May-16 03:00N 33°37' W 118°41'610.5
2018-May-16 02:26N 33°37' W 118°48'511.5
2018-May-16 02:00N 33°37' W 118°54'611.7
2018-May-16 01:30N 33°38' W 119°01'611.5
2018-May-16 01:00N 33°38' W 119°08'612.1
2018-May-16 00:29N 33°38' W 119°16'510.7
2018-May-15 23:58N 33°38' W 119°22'4 8.8
2018-May-15 23:30N 33°38' W 119°27'612.4
2018-May-15 22:59N 33°38' W 119°35'612.4
2018-May-15 22:30N 33°38' W 119°42'612.1
2018-May-15 22:00N 33°38' W 119°50'612.4
2018-May-15 21:30N 33°38' W 119°57'1012.8
2018-May-15 20:46N 33°38' W 120°08'412.4
2018-May-15 20:28N 33°38' W 120°13'613.0
2018-May-15 19:59N 33°38' W 120°20'613.3
2018-May-15 19:30N 33°38' W 120°28'612.8
2018-May-15 19:01N 33°38' W 120°36'713.2
2018-May-15 18:30N 33°38' W 120°43'713.7
2018-May-15 18:00N 33°38' W 120°52'713.2
2018-May-15 17:30N 33°38' W 120°60'612.6
2018-May-15 17:00N 33°39' W 121°07'713.3
2018-May-15 16:30N 33°43' W 121°14'713.1
2018-May-15 16:00N 33°47' W 121°20'612.5
2018-May-15 15:30N 33°51' W 121°26'612.1
2018-May-15 15:00N 33°54' W 121°32'612.1
2018-May-15 14:29N 33°57' W 121°38'  
Track history (hours):
 
Tides and Currents Weather Stations Pressure Air Temp Water Temp Dewpoint Dewpoint Depression Visibility Wind Speed Wind Dir Waves Ship Positions

Washington

Owner: Crowley Petroleum Services, Jacksonville, FL. More information available from US FCC via Universal Licensing System and Coast Guard Vessel Documentation Center.

Last reported at 2018-May-24 04:24 UTC. Time now 2018-May-24 07:59 UTC.
Position N 37°56' W 122°25'.

Length 251 m; draft 10.2 m.

Type: Ship. MMSI: 368127000.

Date/timePositionNaut miles runAvg speedWind from/ knotsBaromVisibWave heightAir tempDewpointWater temp
2018-May-24 04:24N 37°56' W 122°25'0 0.0
2018-May-24 04:00N 37°56' W 122°25'0 0.1
2018-May-24 03:30N 37°56' W 122°25'1 2.8
2018-May-24 03:00N 37°54' W 122°25'3 7.0
2018-May-24 02:30N 37°51' W 122°24'3 6.8
2018-May-24 02:00N 37°48' W 122°22'2 4.6
2018-May-24 01:28N 37°45' W 122°21'0 0.2
2018-May-24 01:00N 37°45' W 122°21'0 0.0
2018-May-24 00:30N 37°45' W 122°21'0 0.0
2018-May-24 00:00N 37°45' W 122°21'0 0.0
2018-May-23 23:30N 37°45' W 122°21'0 0.0
2018-May-23 23:00N 37°45' W 122°21'0 0.2
2018-May-23 22:30N 37°45' W 122°21'0 0.5
2018-May-23 22:00N 37°46' W 122°21'0 0.1
2018-May-23 21:30N 37°46' W 122°21'0 0.0
2018-May-23 20:58N 37°46' W 122°21'0 0.1
2018-May-23 20:28N 37°46' W 122°21'0 0.0
2018-May-23 19:58N 37°46' W 122°21'0 0.0
2018-May-23 19:28N 37°46' W 122°21'0 0.0
2018-May-23 18:58N 37°46' W 122°21'0 0.0
2018-May-23 18:28N 37°46' W 122°21'0 0.0
2018-May-23 17:58N 37°46' W 122°21'0 0.2
2018-May-23 17:28N 37°46' W 122°21'0 0.0
2018-May-23 17:00N 37°46' W 122°21'0 0.0
2018-May-23 16:30N 37°46' W 122°21'0 0.2
2018-May-23 16:00N 37°46' W 122°21'0 0.4
2018-May-23 15:30N 37°45' W 122°21'0 0.1
2018-May-23 15:00N 37°45' W 122°21'0 0.1
2018-May-23 14:30N 37°45' W 122°21'0 0.0
2018-May-23 13:59N 37°45' W 122°21'0 0.0
2018-May-23 13:30N 37°45' W 122°21'0 0.0
2018-May-23 13:00N 37°45' W 122°21'0 0.0
2018-May-23 12:30N 37°45' W 122°21'0 0.0
2018-May-23 12:00N 37°45' W 122°21'0 0.1
2018-May-23 11:31N 37°45' W 122°21'1 2.3
2018-May-23 11:00N 37°46' W 122°22'4 8.4
2018-May-23 10:30N 37°49' W 122°26'5 9.9
2018-May-23 10:00N 37°47' W 122°32'510.7
2018-May-23 09:30N 37°46' W 122°39'5 9.8
2018-May-23 09:00N 37°43' W 122°44'5 9.9
2018-May-23 08:30N 37°40' W 122°48'510.0
2018-May-23 08:00N 37°37' W 122°54'510.1
2018-May-23 07:30N 37°34' W 122°59'5 9.2
2018-May-23 07:00N 37°31' W 123°03'712.4
2018-May-23 06:28N 37°24' W 123°05'1713.8
2018-May-23 05:13N 37°07' W 123°09'913.2
2018-May-23 04:30N 36°58' W 123°11'613.1
2018-May-23 04:01N 36°52' W 123°13'1213.2
2018-May-23 03:06N 36°40' W 123°12'113.4
2018-May-23 03:01N 36°39' W 123°12'3713.0
2018-May-23 00:08N 36°01' W 123°10'15011.9
2018-May-22 11:34N 33°57' W 121°28'112.2
2018-May-22 11:28N 33°56' W 121°27'1012.0
2018-May-22 10:36N 33°48' W 121°18'112.0
2018-May-22 10:30N 33°47' W 121°17'611.9
2018-May-22 10:00N 33°43' W 121°13'510.9
2018-May-22 09:30N 33°41' W 121°06'611.9
2018-May-22 09:01N 33°41' W 120°59'611.9
2018-May-22 08:30N 33°41' W 120°52'611.9
2018-May-22 08:01N 33°41' W 120°45'611.8
2018-May-22 07:29N 33°41' W 120°38'612.2
2018-May-22 06:58N 33°41' W 120°30'612.1
2018-May-22 06:30N 33°41' W 120°23'612.1
2018-May-22 05:59N 33°41' W 120°16'612.2
2018-May-22 05:30N 33°42' W 120°09'612.3
2018-May-22 05:00N 33°42' W 120°01'612.1
2018-May-22 04:30N 33°43' W 119°54'612.6
2018-May-22 04:00N 33°44' W 119°47'612.6
2018-May-22 03:30N 33°43' W 119°39'712.4
2018-May-22 02:58N 33°41' W 119°31'612.7
2018-May-22 02:30N 33°41' W 119°24'713.3
2018-May-22 02:00N 33°41' W 119°16'612.3
2018-May-22 01:30N 33°41' W 119°09'611.3
2018-May-22 01:00N 33°41' W 119°02'611.5
2018-May-22 00:30N 33°40' W 118°55'611.4
2018-May-22 00:00N 33°40' W 118°48'611.4
2018-May-21 23:30N 33°40' W 118°41'1311.0
2018-May-21 22:21N 33°39' W 118°26'411.6
2018-May-21 22:00N 33°38' W 118°21'611.4
2018-May-21 21:30N 33°37' W 118°15'5 9.3
2018-May-21 21:00N 33°41' W 118°12'3 5.5
2018-May-21 20:30N 33°44' W 118°12'1 2.6
2018-May-21 20:00N 33°45' W 118°13'0 0.2
2018-May-21 19:29N 33°45' W 118°13'0 0.0
2018-May-21 18:59N 33°45' W 118°13'0 0.0
2018-May-21 18:29N 33°45' W 118°13'0 0.0
2018-May-21 18:00N 33°45' W 118°13'0 0.0
2018-May-21 17:27N 33°45' W 118°13'0 0.0
2018-May-21 17:00N 33°45' W 118°13'0 0.0
2018-May-21 16:30N 33°45' W 118°13'0 0.0
2018-May-21 16:00N 33°45' W 118°13'0 0.0
2018-May-21 15:30N 33°45' W 118°13'0 0.0
2018-May-21 15:00N 33°45' W 118°13'0 0.0
2018-May-21 14:30N 33°45' W 118°13'0 0.0
2018-May-21 14:00N 33°45' W 118°13'0 0.0
2018-May-21 13:30N 33°45' W 118°13'0 0.0
2018-May-21 13:00N 33°45' W 118°13'0 0.0
2018-May-21 12:30N 33°45' W 118°13'0 0.0
2018-May-21 12:00N 33°45' W 118°13'0 0.0
2018-May-21 11:30N 33°45' W 118°13'0 0.0
2018-May-21 10:59N 33°45' W 118°13'0 0.0
2018-May-21 10:30N 33°45' W 118°13'0 0.0
2018-May-21 10:00N 33°45' W 118°13'0 0.0
2018-May-21 09:30N 33°45' W 118°13'0 0.0
2018-May-21 09:00N 33°45' W 118°13'0 0.0
2018-May-21 08:29N 33°45' W 118°13'0 0.0
2018-May-21 08:00N 33°45' W 118°13'0 0.0
2018-May-21 07:30N 33°45' W 118°13'0 0.0
2018-May-21 07:00N 33°45' W 118°13'0 0.0
2018-May-21 06:30N 33°45' W 118°13'0 0.0
2018-May-21 06:00N 33°45' W 118°13'0 0.0
2018-May-21 05:29N 33°45' W 118°13'0 0.0
2018-May-21 05:00N 33°45' W 118°13'0 0.0
2018-May-21 04:30N 33°45' W 118°13'0 0.0
2018-May-21 04:00N 33°45' W 118°13'0 0.0
2018-May-21 03:30N 33°45' W 118°13'0 0.0
2018-May-21 03:00N 33°45' W 118°13'0 0.0
2018-May-21 02:30N 33°45' W 118°13'1 2.9
2018-May-21 02:00N 33°44' W 118°12'0 0.6
2018-May-21 01:28N 33°44' W 118°12'0 0.1
2018-May-21 00:58N 33°44' W 118°12'0 0.1
2018-May-21 00:28N 33°44' W 118°12'0 0.1
2018-May-20 23:58N 33°44' W 118°12'0 0.1
2018-May-20 23:28N 33°44' W 118°12'0 0.0
2018-May-20 22:58N 33°44' W 118°12'0 0.0
2018-May-20 22:28N 33°44' W 118°12'0 0.0
2018-May-20 21:58N 33°44' W 118°12'0 0.1
2018-May-20 21:28N 33°44' W 118°12'0 0.0
2018-May-20 20:58N 33°44' W 118°12'0 0.1
2018-May-20 20:25N 33°44' W 118°12'0 0.0
2018-May-20 19:58N 33°44' W 118°12'0 0.0
2018-May-20 19:28N 33°44' W 118°12'0 0.0
2018-May-20 19:00N 33°44' W 118°12'0 0.0
2018-May-20 18:30N 33°44' W 118°12'0 0.1
2018-May-20 18:00N 33°44' W 118°12'0 0.0
2018-May-20 17:30N 33°44' W 118°12'0 0.0
2018-May-20 17:00N 33°44' W 118°12'0 0.0
2018-May-20 16:30N 33°44' W 118°12'0 0.0
2018-May-20 16:00N 33°44' W 118°12'0 0.0
2018-May-20 15:30N 33°44' W 118°12'0 0.0
2018-May-20 15:00N 33°44' W 118°12'0 0.0
2018-May-20 14:29N 33°44' W 118°12'0 0.0
2018-May-20 13:59N 33°44' W 118°12'0 0.0
2018-May-20 13:29N 33°44' W 118°12'0 0.0
2018-May-20 12:59N 33°44' W 118°12'0 0.0
2018-May-20 12:29N 33°44' W 118°12'0 0.0
2018-May-20 11:59N 33°44' W 118°12'0 0.0
2018-May-20 11:29N 33°44' W 118°12'0 0.0
2018-May-20 10:59N 33°44' W 118°12'0 0.0
2018-May-20 10:29N 33°44' W 118°12'0 0.0
2018-May-20 09:59N 33°44' W 118°12'0 0.0
2018-May-20 09:30N 33°44' W 118°12'0 0.0
2018-May-20 09:00N 33°44' W 118°12'0 0.0
2018-May-20 08:30N 33°44' W 118°12'0 0.0
2018-May-20 08:00N 33°44' W 118°12'0 0.0
2018-May-20 07:30N 33°44' W 118°12'0 0.0
2018-May-20 07:00N 33°44' W 118°12'0 0.0
2018-May-20 06:30N 33°44' W 118°12'0 0.0
2018-May-20 06:00N 33°44' W 118°12'0 0.0
2018-May-20 05:30N 33°44' W 118°12'0 0.0
2018-May-20 05:00N 33°44' W 118°12'0 0.0
2018-May-20 04:27N 33°44' W 118°12'0 0.0
2018-May-20 04:00N 33°44' W 118°12'0 0.0
2018-May-20 03:30N 33°44' W 118°12'0 0.0
2018-May-20 03:00N 33°44' W 118°12'0 0.0
2018-May-20 02:30N 33°44' W 118°12'0 0.0
2018-May-20 02:00N 33°44' W 118°12'0 0.0
2018-May-20 01:30N 33°44' W 118°12'0 0.0
2018-May-20 01:00N 33°44' W 118°12'0 0.0
2018-May-20 00:30N 33°44' W 118°12'0 0.1
2018-May-20 00:00N 33°44' W 118°12'0 0.1
2018-May-19 23:30N 33°44' W 118°12'0 0.1
2018-May-19 23:00N 33°44' W 118°12'0 0.1
2018-May-19 22:30N 33°44' W 118°12'0 0.1
2018-May-19 22:00N 33°44' W 118°12'0 0.1
2018-May-19 21:30N 33°44' W 118°12'0 0.0
2018-May-19 21:00N 33°44' W 118°12'0 0.1
2018-May-19 20:30N 33°44' W 118°12'0 0.1
2018-May-19 20:00N 33°44' W 118°12'0 0.1
2018-May-19 19:30N 33°44' W 118°12'0 0.0
2018-May-19 18:57N 33°44' W 118°12'0 0.0
2018-May-19 18:30N 33°44' W 118°12'0 0.0
2018-May-19 18:00N 33°44' W 118°12'0 0.1
2018-May-19 17:30N 33°44' W 118°12'0 0.0
2018-May-19 17:00N 33°44' W 118°12'0 0.1
2018-May-19 16:30N 33°44' W 118°12'0 0.1
2018-May-19 15:57N 33°44' W 118°12'0 0.1
2018-May-19 15:29N 33°44' W 118°12'0 0.0
2018-May-19 14:59N 33°44' W 118°12'0 0.1
2018-May-19 14:29N 33°44' W 118°12'0 0.0
2018-May-19 13:59N 33°44' W 118°12'0 0.0
2018-May-19 13:29N 33°44' W 118°12'0 0.0
2018-May-19 12:59N 33°44' W 118°12'0 0.0
2018-May-19 12:29N 33°44' W 118°12'0 0.0
2018-May-19 11:59N 33°44' W 118°12'0 0.1
2018-May-19 11:28N 33°44' W 118°12'0 0.1
2018-May-19 10:58N 33°44' W 118°12'0 0.0
2018-May-19 10:22N 33°44' W 118°12'0 0.0
2018-May-19 09:58N 33°44' W 118°12'0 0.0
2018-May-19 09:28N 33°44' W 118°12'0 0.0
2018-May-19 08:58N 33°44' W 118°12'0 0.0
2018-May-19 08:28N 33°44' W 118°12'0 0.0
2018-May-19 08:00N 33°44' W 118°12'0 0.1
2018-May-19 07:30N 33°44' W 118°12'0 0.0
2018-May-19 07:00N 33°44' W 118°12'0 0.0
2018-May-19 06:30N 33°44' W 118°12'0 0.0
2018-May-19 06:00N 33°44' W 118°12'0 0.0
2018-May-19 05:30N 33°44' W 118°12'0 0.0
2018-May-19 05:00N 33°44' W 118°12'0 0.0
2018-May-19 04:30N 33°44' W 118°12'0 0.0
2018-May-19 04:00N 33°44' W 118°12'0 0.0
2018-May-19 03:28N 33°44' W 118°12'0 0.0
2018-May-19 02:58N 33°44' W 118°12'0 0.1
2018-May-19 02:28N 33°44' W 118°12'0 0.0
2018-May-19 01:58N 33°44' W 118°12'0 0.1
2018-May-19 01:28N 33°44' W 118°12'0 0.0
2018-May-19 00:58N 33°44' W 118°12'0 0.0
2018-May-19 00:28N 33°44' W 118°12'0 0.0
2018-May-18 23:59N 33°44' W 118°12'0 0.0
2018-May-18 23:29N 33°44' W 118°12'0 0.1
2018-May-18 22:59N 33°44' W 118°12'0 0.1
2018-May-18 22:29N 33°44' W 118°12'0 0.0
2018-May-18 21:59N 33°44' W 118°12'0 0.1
2018-May-18 21:29N 33°44' W 118°12'0 0.0
2018-May-18 20:59N 33°44' W 118°12'0 0.1
2018-May-18 20:29N 33°44' W 118°12'0 0.0
2018-May-18 20:00N 33°44' W 118°12'0 0.0
2018-May-18 19:30N 33°44' W 118°12'0 0.0
2018-May-18 19:00N 33°44' W 118°12'0 0.1
2018-May-18 18:30N 33°44' W 118°12'0 0.0
2018-May-18 18:00N 33°44' W 118°12'0 0.0
2018-May-18 17:30N 33°44' W 118°12'0 0.1
2018-May-18 17:00N 33°44' W 118°12'0 0.0
2018-May-18 16:30N 33°44' W 118°12'0 0.1
2018-May-18 15:59N 33°44' W 118°12'0 0.1
2018-May-18 15:29N 33°44' W 118°12'0 0.1
2018-May-18 14:59N 33°44' W 118°12'0 0.1
2018-May-18 14:29N 33°44' W 118°12'0 0.0
2018-May-18 13:59N 33°44' W 118°12'0 0.0
2018-May-18 13:29N 33°44' W 118°12'0 0.0
2018-May-18 12:59N 33°44' W 118°12'0 0.0
2018-May-18 12:30N 33°44' W 118°12'0 0.0
2018-May-18 11:58N 33°44' W 118°12'0 0.0
2018-May-18 11:28N 33°44' W 118°12'0 0.1
2018-May-18 10:58N 33°44' W 118°12'0 0.1
2018-May-18 10:28N 33°44' W 118°12'0 0.1
2018-May-18 09:58N 33°44' W 118°12'0 0.1
2018-May-18 09:25N 33°44' W 118°12'0 0.1
2018-May-18 08:58N 33°44' W 118°12'0 0.1
2018-May-18 08:30N 33°44' W 118°12'0 0.1
2018-May-18 07:58N 33°44' W 118°12'0 0.0
2018-May-18 07:28N 33°44' W 118°12'0 0.0
2018-May-18 06:58N 33°44' W 118°12'0 0.0
2018-May-18 06:25N 33°44' W 118°12'0 0.0
2018-May-18 05:58N 33°44' W 118°12'0 0.0
2018-May-18 05:28N 33°44' W 118°12'0 0.0
2018-May-18 04:58N 33°44' W 118°12'0 0.1
2018-May-18 04:28N 33°44' W 118°12'0 0.0
2018-May-18 03:58N 33°44' W 118°12'0 0.1
2018-May-18 03:25N 33°44' W 118°12'0 0.0
2018-May-18 02:58N 33°44' W 118°12'0 0.0
2018-May-18 02:28N 33°44' W 118°12'0 0.1
2018-May-18 01:58N 33°44' W 118°12'0 0.1
2018-May-18 01:28N 33°44' W 118°12'0 0.0
2018-May-18 00:58N 33°44' W 118°12'0 0.1
2018-May-18 00:28N 33°44' W 118°12'0 0.0
2018-May-17 23:58N 33°44' W 118°12'0 0.0
2018-May-17 23:28N 33°44' W 118°12'0 0.1
2018-May-17 22:58N 33°44' W 118°12'0 0.0
2018-May-17 22:28N 33°44' W 118°12'0 0.0
2018-May-17 21:58N 33°44' W 118°12'0 0.0
2018-May-17 21:28N 33°44' W 118°12'0 0.1
2018-May-17 20:58N 33°44' W 118°12'0 0.0
2018-May-17 20:28N 33°44' W 118°12'0 0.0
2018-May-17 19:58N 33°44' W 118°12'0 0.0
2018-May-17 19:28N 33°44' W 118°12'0 0.0
2018-May-17 18:58N 33°44' W 118°12'0 0.0
2018-May-17 18:28N 33°44' W 118°12'0 0.0
2018-May-17 17:58N 33°44' W 118°12'0 0.0
2018-May-17 17:28N 33°44' W 118°12'0 0.0
2018-May-17 16:58N 33°44' W 118°12'0 0.1
2018-May-17 16:28N 33°44' W 118°12'0 0.0
2018-May-17 15:58N 33°44' W 118°12'0 0.1
2018-May-17 15:28N 33°44' W 118°12'0 0.1
2018-May-17 14:58N 33°44' W 118°12'0 0.1
2018-May-17 14:28N 33°44' W 118°12'0 0.0
2018-May-17 13:58N 33°44' W 118°12'0 0.0
2018-May-17 13:28N 33°44' W 118°12'0 0.0
2018-May-17 12:58N 33°44' W 118°12'0 0.0
2018-May-17 12:28N 33°44' W 118°12'0 0.0
2018-May-17 11:58N 33°44' W 118°12'0 0.0
2018-May-17 11:28N 33°44' W 118°12'0 0.0
2018-May-17 10:58N 33°44' W 118°12'0 0.0
2018-May-17 10:25N 33°44' W 118°12'0 0.0
2018-May-17 09:58N 33°44' W 118°12'0 0.0
2018-May-17 09:22N 33°44' W 118°12'0 0.0
2018-May-17 08:58N 33°44' W 118°12'0 0.0
2018-May-17 08:28N 33°44' W 118°12'0 0.0
2018-May-17 07:58N 33°44' W 118°12'0 0.0
2018-May-17 07:28N 33°44' W 118°12'0 0.0
2018-May-17 06:55N 33°44' W 118°12'0 0.0
2018-May-17 06:28N 33°44' W 118°12'0 0.0
2018-May-17 05:58N 33°44' W 118°12'0 0.0
2018-May-17 05:28N 33°44' W 118°12'0 0.0
2018-May-17 04:59N 33°44' W 118°12'0 0.0
2018-May-17 04:26N 33°44' W 118°12'0 0.0
2018-May-17 03:59N 33°44' W 118°12'0 0.0
2018-May-17 03:29N 33°44' W 118°12'0 0.0
2018-May-17 02:59N 33°44' W 118°12'0 0.0
2018-May-17 02:29N 33°44' W 118°12'0 0.0
2018-May-17 01:59N 33°44' W 118°12'0 0.0
2018-May-17 01:30N 33°44' W 118°12'0 0.1
2018-May-17 00:55N 33°44' W 118°12'0 0.0
2018-May-17 00:28N 33°44' W 118°12'0 0.0
2018-May-16 23:58N 33°44' W 118°12'0 0.1
2018-May-16 23:28N 33°44' W 118°12'0 0.0
2018-May-16 22:58N 33°44' W 118°12'0 0.0
2018-May-16 22:28N 33°44' W 118°12'0 0.0
2018-May-16 21:58N 33°44' W 118°12'0 0.0
2018-May-16 21:28N 33°44' W 118°12'0 0.0
2018-May-16 20:58N 33°44' W 118°12'0 0.1
2018-May-16 20:28N 33°44' W 118°12'0 0.0
2018-May-16 19:58N 33°44' W 118°12'0 0.1
2018-May-16 19:25N 33°44' W 118°12'0 0.1
2018-May-16 18:58N 33°44' W 118°12'0 0.0
2018-May-16 18:28N 33°44' W 118°12'0 0.0
2018-May-16 17:58N 33°44' W 118°12'0 0.0
2018-May-16 17:28N 33°44' W 118°12'0 0.0
2018-May-16 16:58N 33°44' W 118°12'0 0.0
2018-May-16 16:28N 33°44' W 118°12'0 0.1
2018-May-16 15:58N 33°44' W 118°12'0 0.0
2018-May-16 15:28N 33°44' W 118°12'0 0.1
2018-May-16 14:58N 33°44' W 118°12'0 0.1
2018-May-16 14:28N 33°44' W 118°12'0 0.0
2018-May-16 13:58N 33°44' W 118°12'0 0.0
2018-May-16 13:28N 33°44' W 118°12'0 0.0
2018-May-16 12:58N 33°44' W 118°12'0 0.0
2018-May-16 12:30N 33°44' W 118°12'0 0.0
2018-May-16 12:00N 33°44' W 118°12'0 0.0
2018-May-16 11:30N 33°44' W 118°12'0 0.0
2018-May-16 11:00N 33°44' W 118°12'0 0.0
2018-May-16 10:30N 33°44' W 118°12'0 0.0
2018-May-16 10:01N 33°44' W 118°12'0 0.0
2018-May-16 09:30N 33°44' W 118°12'0 0.0
2018-May-16 09:00N 33°44' W 118°12'0 0.0
2018-May-16 08:30N 33°44' W 118°12'0 0.0
2018-May-16 08:00N 33°44' W 118°12'0 0.1
2018-May-16 07:30N 33°44' W 118°12'0 0.1
2018-May-16 07:00N 33°44' W 118°12'0 0.3
2018-May-16 06:30N 33°44' W 118°12'2 4.0
2018-May-16 06:00N 33°42' W 118°11'3 6.1
2018-May-16 05:30N 33°39' W 118°11'5 8.8
2018-May-16 04:59N 33°36' W 118°15'511.4
2018-May-16 04:30N 33°36' W 118°22'611.2
2018-May-16 04:00N 33°36' W 118°28'611.4
2018-May-16 03:29N 33°36' W 118°35'510.2
2018-May-16 03:00N 33°37' W 118°41'610.5
2018-May-16 02:26N 33°37' W 118°48'511.5
2018-May-16 02:00N 33°37' W 118°54'611.7
2018-May-16 01:30N 33°38' W 119°01'611.5
2018-May-16 01:00N 33°38' W 119°08'612.1
2018-May-16 00:29N 33°38' W 119°16'510.7
2018-May-15 23:58N 33°38' W 119°22'4 8.8
2018-May-15 23:30N 33°38' W 119°27'612.4
2018-May-15 22:59N 33°38' W 119°35'612.4
2018-May-15 22:30N 33°38' W 119°42'612.1
2018-May-15 22:00N 33°38' W 119°50'612.4
2018-May-15 21:30N 33°38' W 119°57'1012.8
2018-May-15 20:46N 33°38' W 120°08'412.4
2018-May-15 20:28N 33°38' W 120°13'613.0
2018-May-15 19:59N 33°38' W 120°20'613.3
2018-May-15 19:30N 33°38' W 120°28'612.8
2018-May-15 19:01N 33°38' W 120°36'713.2
2018-May-15 18:30N 33°38' W 120°43'713.7
2018-May-15 18:00N 33°38' W 120°52'713.2
2018-May-15 17:30N 33°38' W 120°60'612.6
2018-May-15 17:00N 33°39' W 121°07'713.3
2018-May-15 16:30N 33°43' W 121°14'713.1
2018-May-15 16:00N 33°47' W 121°20'612.5
2018-May-15 15:30N 33°51' W 121°26'612.1
2018-May-15 15:00N 33°54' W 121°32'612.1
2018-May-15 14:29N 33°57' W 121°38'  

Dump ship's entire track history